sensor_id;sensor_type;location;lat;lon;timestamp;P1;durP1;ratioP1;P2;durP2;ratioP2
13879;SDS011;7010;48.200;16.332;2022-10-16T00:01:45;61.00;;;54.45;;
13879;SDS011;7010;48.200;16.332;2022-10-16T00:04:13;58.55;;;52.28;;
13879;SDS011;7010;48.200;16.332;2022-10-16T00:06:42;58.33;;;51.95;;
13879;SDS011;7010;48.200;16.332;2022-10-16T00:09:10;61.67;;;53.42;;
13879;SDS011;7010;48.200;16.332;2022-10-16T00:11:38;57.92;;;51.88;;
13879;SDS011;7010;48.200;16.332;2022-10-16T00:14:08;56.53;;;50.83;;
13879;SDS011;7010;48.200;16.332;2022-10-16T00:16:38;58.13;;;51.83;;
13879;SDS011;7010;48.200;16.332;2022-10-16T00:19:08;58.42;;;51.28;;
13879;SDS011;7010;48.200;16.332;2022-10-16T00:21:37;66.35;;;53.50;;
13879;SDS011;7010;48.200;16.332;2022-10-16T00:24:06;65.28;;;52.85;;
13879;SDS011;7010;48.200;16.332;2022-10-16T00:26:36;64.07;;;52.17;;
13879;SDS011;7010;48.200;16.332;2022-10-16T00:29:05;58.88;;;52.47;;
13879;SDS011;7010;48.200;16.332;2022-10-16T00:31:34;86.75;;;57.40;;
13879;SDS011;7010;48.200;16.332;2022-10-16T00:34:03;67.13;;;51.83;;
13879;SDS011;7010;48.200;16.332;2022-10-16T00:36:32;58.50;;;52.22;;
13879;SDS011;7010;48.200;16.332;2022-10-16T00:39:01;67.32;;;55.53;;
13879;SDS011;7010;48.200;16.332;2022-10-16T00:41:30;60.65;;;54.03;;
13879;SDS011;7010;48.200;16.332;2022-10-16T00:43:59;68.05;;;54.65;;
13879;SDS011;7010;48.200;16.332;2022-10-16T00:46:29;58.97;;;52.28;;
13879;SDS011;7010;48.200;16.332;2022-10-16T00:49:04;65.28;;;55.35;;
13879;SDS011;7010;48.200;16.332;2022-10-16T00:51:37;60.45;;;53.22;;
13879;SDS011;7010;48.200;16.332;2022-10-16T00:54:08;71.00;;;53.17;;
13879;SDS011;7010;48.200;16.332;2022-10-16T00:56:39;80.55;;;56.85;;
13879;SDS011;7010;48.200;16.332;2022-10-16T00:59:10;65.90;;;51.13;;
13879;SDS011;7010;48.200;16.332;2022-10-16T01:01:42;69.63;;;55.10;;
13879;SDS011;7010;48.200;16.332;2022-10-16T01:04:10;58.05;;;51.53;;
13879;SDS011;7010;48.200;16.332;2022-10-16T01:06:41;65.50;;;52.67;;
13879;SDS011;7010;48.200;16.332;2022-10-16T01:09:17;60.85;;;52.20;;
13879;SDS011;7010;48.200;16.332;2022-10-16T01:11:52;57.63;;;51.45;;
13879;SDS011;7010;48.200;16.332;2022-10-16T01:14:32;57.38;;;50.50;;
13879;SDS011;7010;48.200;16.332;2022-10-16T01:17:09;59.10;;;47.53;;
13879;SDS011;7010;48.200;16.332;2022-10-16T01:19:44;50.85;;;45.55;;
13879;SDS011;7010;48.200;16.332;2022-10-16T01:22:25;53.08;;;45.75;;
13879;SDS011;7010;48.200;16.332;2022-10-16T01:25:05;53.92;;;47.65;;
13879;SDS011;7010;48.200;16.332;2022-10-16T01:27:41;51.97;;;46.42;;
13879;SDS011;7010;48.200;16.332;2022-10-16T01:30:13;51.17;;;45.88;;
13879;SDS011;7010;48.200;16.332;2022-10-16T01:32:45;53.63;;;46.97;;
13879;SDS011;7010;48.200;16.332;2022-10-16T01:35:18;50.88;;;45.63;;
13879;SDS011;7010;48.200;16.332;2022-10-16T01:37:51;48.72;;;43.85;;
13879;SDS011;7010;48.200;16.332;2022-10-16T01:40:26;48.05;;;43.22;;
13879;SDS011;7010;48.200;16.332;2022-10-16T01:42:58;48.78;;;43.33;;
13879;SDS011;7010;48.200;16.332;2022-10-16T01:45:30;55.55;;;44.95;;
13879;SDS011;7010;48.200;16.332;2022-10-16T01:48:00;52.80;;;47.10;;
13879;SDS011;7010;48.200;16.332;2022-10-16T01:50:31;55.65;;;48.63;;
13879;SDS011;7010;48.200;16.332;2022-10-16T01:53:02;50.22;;;44.97;;
13879;SDS011;7010;48.200;16.332;2022-10-16T01:55:33;51.35;;;45.92;;
13879;SDS011;7010;48.200;16.332;2022-10-16T01:58:07;55.65;;;47.95;;
13879;SDS011;7010;48.200;16.332;2022-10-16T02:00:37;56.00;;;47.55;;
13879;SDS011;7010;48.200;16.332;2022-10-16T02:03:07;51.88;;;46.20;;
13879;SDS011;7010;48.200;16.332;2022-10-16T02:05:41;49.75;;;44.65;;
13879;SDS011;7010;48.200;16.332;2022-10-16T02:08:12;48.75;;;43.65;;
13879;SDS011;7010;48.200;16.332;2022-10-16T02:10:41;51.70;;;44.67;;
13879;SDS011;7010;48.200;16.332;2022-10-16T02:13:12;49.17;;;43.92;;
13879;SDS011;7010;48.200;16.332;2022-10-16T02:15:43;50.20;;;42.55;;
13879;SDS011;7010;48.200;16.332;2022-10-16T02:18:11;48.17;;;42.78;;
13879;SDS011;7010;48.200;16.332;2022-10-16T02:20:42;47.70;;;42.83;;
13879;SDS011;7010;48.200;16.332;2022-10-16T02:23:22;47.38;;;42.25;;
13879;SDS011;7010;48.200;16.332;2022-10-16T02:25:56;48.25;;;43.13;;
13879;SDS011;7010;48.200;16.332;2022-10-16T02:28:29;46.20;;;41.28;;
13879;SDS011;7010;48.200;16.332;2022-10-16T02:31:02;47.80;;;42.47;;
13879;SDS011;7010;48.200;16.332;2022-10-16T02:33:35;45.50;;;40.75;;
13879;SDS011;7010;48.200;16.332;2022-10-16T02:36:06;53.22;;;40.72;;
13879;SDS011;7010;48.200;16.332;2022-10-16T02:38:35;48.03;;;41.13;;
13879;SDS011;7010;48.200;16.332;2022-10-16T02:41:04;43.33;;;39.00;;
13879;SDS011;7010;48.200;16.332;2022-10-16T02:43:33;47.05;;;41.50;;
13879;SDS011;7010;48.200;16.332;2022-10-16T02:46:02;44.30;;;39.15;;
13879;SDS011;7010;48.200;16.332;2022-10-16T02:48:30;45.47;;;40.67;;
13879;SDS011;7010;48.200;16.332;2022-10-16T02:50:58;42.25;;;37.90;;
13879;SDS011;7010;48.200;16.332;2022-10-16T02:53:26;44.33;;;39.63;;
13879;SDS011;7010;48.200;16.332;2022-10-16T02:55:55;42.90;;;38.67;;
13879;SDS011;7010;48.200;16.332;2022-10-16T02:58:23;41.20;;;37.10;;
13879;SDS011;7010;48.200;16.332;2022-10-16T03:00:54;39.40;;;35.38;;
13879;SDS011;7010;48.200;16.332;2022-10-16T03:03:23;40.85;;;36.38;;
13879;SDS011;7010;48.200;16.332;2022-10-16T03:05:51;38.90;;;35.15;;
13879;SDS011;7010;48.200;16.332;2022-10-16T03:08:19;38.15;;;34.33;;
13879;SDS011;7010;48.200;16.332;2022-10-16T03:10:50;38.75;;;35.08;;
13879;SDS011;7010;48.200;16.332;2022-10-16T03:13:18;38.25;;;34.38;;
13879;SDS011;7010;48.200;16.332;2022-10-16T03:15:48;38.97;;;34.63;;
13879;SDS011;7010;48.200;16.332;2022-10-16T03:18:17;35.50;;;32.08;;
13879;SDS011;7010;48.200;16.332;2022-10-16T03:20:46;35.72;;;32.28;;
13879;SDS011;7010;48.200;16.332;2022-10-16T03:23:14;35.88;;;31.95;;
13879;SDS011;7010;48.200;16.332;2022-10-16T03:25:42;38.88;;;34.25;;
13879;SDS011;7010;48.200;16.332;2022-10-16T03:28:13;38.33;;;34.42;;
13879;SDS011;7010;48.200;16.332;2022-10-16T03:30:42;37.30;;;33.38;;
13879;SDS011;7010;48.200;16.332;2022-10-16T03:33:11;36.63;;;32.97;;
13879;SDS011;7010;48.200;16.332;2022-10-16T03:35:40;36.72;;;32.90;;
13879;SDS011;7010;48.200;16.332;2022-10-16T03:38:09;38.50;;;34.40;;
13879;SDS011;7010;48.200;16.332;2022-10-16T03:40:37;41.83;;;33.30;;
13879;SDS011;7010;48.200;16.332;2022-10-16T03:43:05;34.97;;;31.55;;
13879;SDS011;7010;48.200;16.332;2022-10-16T03:45:33;35.10;;;31.33;;
13879;SDS011;7010;48.200;16.332;2022-10-16T03:48:02;34.55;;;31.02;;
13879;SDS011;7010;48.200;16.332;2022-10-16T03:50:30;34.58;;;31.27;;
13879;SDS011;7010;48.200;16.332;2022-10-16T03:53:00;35.08;;;31.55;;
13879;SDS011;7010;48.200;16.332;2022-10-16T03:55:28;33.08;;;29.60;;
13879;SDS011;7010;48.200;16.332;2022-10-16T03:57:56;35.72;;;30.13;;
13879;SDS011;7010;48.200;16.332;2022-10-16T04:00:24;49.42;;;34.15;;
13879;SDS011;7010;48.200;16.332;2022-10-16T04:02:53;33.45;;;30.23;;
13879;SDS011;7010;48.200;16.332;2022-10-16T04:05:21;37.00;;;33.47;;
13879;SDS011;7010;48.200;16.332;2022-10-16T04:07:49;36.95;;;33.25;;
13879;SDS011;7010;48.200;16.332;2022-10-16T04:10:19;36.00;;;32.70;;
13879;SDS011;7010;48.200;16.332;2022-10-16T04:12:47;48.72;;;34.65;;
13879;SDS011;7010;48.200;16.332;2022-10-16T04:15:15;39.15;;;35.08;;
13879;SDS011;7010;48.200;16.332;2022-10-16T04:17:43;41.80;;;35.00;;
13879;SDS011;7010;48.200;16.332;2022-10-16T04:20:11;38.65;;;34.83;;
13879;SDS011;7010;48.200;16.332;2022-10-16T04:22:40;41.33;;;37.10;;
13879;SDS011;7010;48.200;16.332;2022-10-16T04:25:08;41.92;;;36.85;;
13879;SDS011;7010;48.200;16.332;2022-10-16T04:27:39;42.22;;;37.13;;
13879;SDS011;7010;48.200;16.332;2022-10-16T04:30:11;44.15;;;35.78;;
13879;SDS011;7010;48.200;16.332;2022-10-16T04:32:39;42.78;;;37.10;;
13879;SDS011;7010;48.200;16.332;2022-10-16T04:35:08;51.85;;;41.13;;
13879;SDS011;7010;48.200;16.332;2022-10-16T04:37:37;41.75;;;35.58;;
13879;SDS011;7010;48.200;16.332;2022-10-16T04:40:05;35.63;;;32.20;;
13879;SDS011;7010;48.200;16.332;2022-10-16T04:42:34;38.45;;;34.28;;
13879;SDS011;7010;48.200;16.332;2022-10-16T04:45:04;37.25;;;30.15;;
13879;SDS011;7010;48.200;16.332;2022-10-16T04:47:38;35.00;;;31.17;;
13879;SDS011;7010;48.200;16.332;2022-10-16T04:50:07;35.78;;;32.05;;
13879;SDS011;7010;48.200;16.332;2022-10-16T04:52:35;31.08;;;28.33;;
13879;SDS011;7010;48.200;16.332;2022-10-16T04:55:04;32.67;;;29.42;;
13879;SDS011;7010;48.200;16.332;2022-10-16T04:57:33;35.17;;;31.48;;
13879;SDS011;7010;48.200;16.332;2022-10-16T05:00:01;33.95;;;30.73;;
13879;SDS011;7010;48.200;16.332;2022-10-16T05:02:32;37.35;;;32.33;;
13879;SDS011;7010;48.200;16.332;2022-10-16T05:05:00;34.72;;;31.40;;
13879;SDS011;7010;48.200;16.332;2022-10-16T05:07:28;36.40;;;30.20;;
13879;SDS011;7010;48.200;16.332;2022-10-16T05:09:56;37.47;;;32.13;;
13879;SDS011;7010;48.200;16.332;2022-10-16T05:12:25;36.72;;;32.50;;
13879;SDS011;7010;48.200;16.332;2022-10-16T05:14:53;33.10;;;29.63;;
13879;SDS011;7010;48.200;16.332;2022-10-16T05:17:26;30.73;;;27.65;;
13879;SDS011;7010;48.200;16.332;2022-10-16T05:19:55;32.30;;;28.95;;
13879;SDS011;7010;48.200;16.332;2022-10-16T05:22:23;36.17;;;30.70;;
13879;SDS011;7010;48.200;16.332;2022-10-16T05:24:51;35.03;;;29.95;;
13879;SDS011;7010;48.200;16.332;2022-10-16T05:27:20;35.90;;;32.00;;
13879;SDS011;7010;48.200;16.332;2022-10-16T05:29:48;35.58;;;28.70;;
13879;SDS011;7010;48.200;16.332;2022-10-16T05:32:17;31.98;;;28.63;;
13879;SDS011;7010;48.200;16.332;2022-10-16T05:34:47;54.53;;;31.92;;
13879;SDS011;7010;48.200;16.332;2022-10-16T05:37:15;33.35;;;29.83;;
13879;SDS011;7010;48.200;16.332;2022-10-16T05:39:44;36.72;;;30.15;;
13879;SDS011;7010;48.200;16.332;2022-10-16T05:42:12;33.17;;;29.77;;
13879;SDS011;7010;48.200;16.332;2022-10-16T05:44:40;38.15;;;33.05;;
13879;SDS011;7010;48.200;16.332;2022-10-16T05:47:09;41.35;;;31.17;;
13879;SDS011;7010;48.200;16.332;2022-10-16T05:49:37;37.22;;;31.25;;
13879;SDS011;7010;48.200;16.332;2022-10-16T05:52:08;35.67;;;29.40;;
13879;SDS011;7010;48.200;16.332;2022-10-16T05:54:36;34.60;;;29.48;;
13879;SDS011;7010;48.200;16.332;2022-10-16T05:57:04;44.80;;;29.17;;
13879;SDS011;7010;48.200;16.332;2022-10-16T05:59:33;28.60;;;25.63;;
13879;SDS011;7010;48.200;16.332;2022-10-16T06:02:01;28.17;;;25.30;;
13879;SDS011;7010;48.200;16.332;2022-10-16T06:04:29;31.55;;;28.15;;
13879;SDS011;7010;48.200;16.332;2022-10-16T06:06:58;29.40;;;26.40;;
13879;SDS011;7010;48.200;16.332;2022-10-16T06:09:29;31.20;;;27.90;;
13879;SDS011;7010;48.200;16.332;2022-10-16T06:11:57;34.63;;;30.83;;
13879;SDS011;7010;48.200;16.332;2022-10-16T06:14:25;43.53;;;32.22;;
13879;SDS011;7010;48.200;16.332;2022-10-16T06:16:54;39.72;;;32.50;;
13879;SDS011;7010;48.200;16.332;2022-10-16T06:19:22;37.30;;;33.08;;
13879;SDS011;7010;48.200;16.332;2022-10-16T06:21:50;42.90;;;35.03;;
13879;SDS011;7010;48.200;16.332;2022-10-16T06:24:18;39.28;;;34.67;;
13879;SDS011;7010;48.200;16.332;2022-10-16T06:26:48;49.47;;;36.55;;
13879;SDS011;7010;48.200;16.332;2022-10-16T06:29:16;53.58;;;37.38;;
13879;SDS011;7010;48.200;16.332;2022-10-16T06:31:45;43.45;;;35.05;;
13879;SDS011;7010;48.200;16.332;2022-10-16T06:34:13;37.00;;;33.35;;
13879;SDS011;7010;48.200;16.332;2022-10-16T06:36:41;35.83;;;31.90;;
13879;SDS011;7010;48.200;16.332;2022-10-16T06:39:09;40.72;;;34.53;;
13879;SDS011;7010;48.200;16.332;2022-10-16T06:41:37;39.15;;;34.03;;
13879;SDS011;7010;48.200;16.332;2022-10-16T06:44:07;38.78;;;34.65;;
13879;SDS011;7010;48.200;16.332;2022-10-16T06:46:36;42.75;;;34.70;;
13879;SDS011;7010;48.200;16.332;2022-10-16T06:49:04;42.08;;;35.72;;
13879;SDS011;7010;48.200;16.332;2022-10-16T06:51:32;42.15;;;37.63;;
13879;SDS011;7010;48.200;16.332;2022-10-16T06:54:08;44.03;;;37.45;;
13879;SDS011;7010;48.200;16.332;2022-10-16T06:56:36;45.85;;;38.53;;
13879;SDS011;7010;48.200;16.332;2022-10-16T06:59:04;44.33;;;37.00;;
13879;SDS011;7010;48.200;16.332;2022-10-16T07:01:34;41.67;;;37.45;;
13879;SDS011;7010;48.200;16.332;2022-10-16T07:04:02;48.10;;;40.55;;
13879;SDS011;7010;48.200;16.332;2022-10-16T07:06:31;46.33;;;40.22;;
13879;SDS011;7010;48.200;16.332;2022-10-16T07:09:02;45.63;;;39.50;;
13879;SDS011;7010;48.200;16.332;2022-10-16T07:11:32;43.80;;;39.60;;
13879;SDS011;7010;48.200;16.332;2022-10-16T07:14:01;43.85;;;39.28;;
13879;SDS011;7010;48.200;16.332;2022-10-16T07:16:31;46.63;;;37.97;;
13879;SDS011;7010;48.200;16.332;2022-10-16T07:19:01;44.03;;;39.42;;
13879;SDS011;7010;48.200;16.332;2022-10-16T07:21:31;45.75;;;40.90;;
13879;SDS011;7010;48.200;16.332;2022-10-16T07:24:02;48.90;;;41.10;;
13879;SDS011;7010;48.200;16.332;2022-10-16T07:26:33;44.05;;;39.30;;
13879;SDS011;7010;48.200;16.332;2022-10-16T07:29:06;49.35;;;41.17;;
13879;SDS011;7010;48.200;16.332;2022-10-16T07:31:39;46.25;;;39.20;;
13879;SDS011;7010;48.200;16.332;2022-10-16T07:34:10;43.08;;;38.60;;
13879;SDS011;7010;48.200;16.332;2022-10-16T07:36:39;44.97;;;40.25;;
13879;SDS011;7010;48.200;16.332;2022-10-16T07:39:08;44.22;;;39.40;;
13879;SDS011;7010;48.200;16.332;2022-10-16T07:41:36;48.10;;;42.92;;
13879;SDS011;7010;48.200;16.332;2022-10-16T07:44:04;46.63;;;41.65;;
13879;SDS011;7010;48.200;16.332;2022-10-16T07:46:32;50.22;;;40.47;;
13879;SDS011;7010;48.200;16.332;2022-10-16T07:49:02;47.50;;;41.17;;
13879;SDS011;7010;48.200;16.332;2022-10-16T07:51:32;44.92;;;40.50;;
13879;SDS011;7010;48.200;16.332;2022-10-16T07:54:00;50.22;;;44.95;;
13879;SDS011;7010;48.200;16.332;2022-10-16T07:56:30;54.28;;;41.85;;
13879;SDS011;7010;48.200;16.332;2022-10-16T07:59:05;45.97;;;40.78;;
13879;SDS011;7010;48.200;16.332;2022-10-16T08:01:33;47.95;;;42.75;;
13879;SDS011;7010;48.200;16.332;2022-10-16T08:04:03;50.72;;;44.55;;
13879;SDS011;7010;48.200;16.332;2022-10-16T08:06:35;44.53;;;40.05;;
13879;SDS011;7010;48.200;16.332;2022-10-16T08:09:05;51.70;;;40.83;;
13879;SDS011;7010;48.200;16.332;2022-10-16T08:11:34;66.03;;;42.53;;
13879;SDS011;7010;48.200;16.332;2022-10-16T08:14:02;47.45;;;42.22;;
13879;SDS011;7010;48.200;16.332;2022-10-16T08:16:30;48.33;;;43.03;;
13879;SDS011;7010;48.200;16.332;2022-10-16T08:18:59;46.70;;;41.92;;
13879;SDS011;7010;48.200;16.332;2022-10-16T08:21:27;48.03;;;42.83;;
13879;SDS011;7010;48.200;16.332;2022-10-16T08:23:56;49.92;;;40.67;;
13879;SDS011;7010;48.200;16.332;2022-10-16T08:26:25;47.60;;;42.60;;
13879;SDS011;7010;48.200;16.332;2022-10-16T08:28:54;45.00;;;40.40;;
13879;SDS011;7010;48.200;16.332;2022-10-16T08:31:23;46.97;;;41.90;;
13879;SDS011;7010;48.200;16.332;2022-10-16T08:33:52;45.33;;;40.88;;
13879;SDS011;7010;48.200;16.332;2022-10-16T08:36:21;52.60;;;44.72;;
13879;SDS011;7010;48.200;16.332;2022-10-16T08:38:49;45.03;;;40.35;;
13879;SDS011;7010;48.200;16.332;2022-10-16T08:41:26;45.95;;;40.97;;
13879;SDS011;7010;48.200;16.332;2022-10-16T08:47:12;48.65;;;40.72;;
13879;SDS011;7010;48.200;16.332;2022-10-16T08:49:48;43.35;;;38.95;;
13879;SDS011;7010;48.200;16.332;2022-10-16T08:52:25;40.13;;;36.15;;
13879;SDS011;7010;48.200;16.332;2022-10-16T08:54:57;43.60;;;38.65;;
13879;SDS011;7010;48.200;16.332;2022-10-16T08:57:27;42.20;;;37.80;;
13879;SDS011;7010;48.200;16.332;2022-10-16T08:59:57;41.35;;;37.30;;
13879;SDS011;7010;48.200;16.332;2022-10-16T09:02:29;42.65;;;38.33;;
13879;SDS011;7010;48.200;16.332;2022-10-16T09:07:54;40.50;;;36.40;;
13879;SDS011;7010;48.200;16.332;2022-10-16T09:10:39;38.75;;;33.40;;
13879;SDS011;7010;48.200;16.332;2022-10-16T09:13:17;41.28;;;36.80;;
13879;SDS011;7010;48.200;16.332;2022-10-16T09:15:53;39.85;;;33.42;;
13879;SDS011;7010;48.200;16.332;2022-10-16T09:18:27;39.75;;;34.83;;
13879;SDS011;7010;48.200;16.332;2022-10-16T09:21:01;36.08;;;32.45;;
13879;SDS011;7010;48.200;16.332;2022-10-16T09:23:37;41.05;;;32.33;;
13879;SDS011;7010;48.200;16.332;2022-10-16T09:26:05;35.15;;;31.30;;
13879;SDS011;7010;48.200;16.332;2022-10-16T09:28:40;34.20;;;30.80;;
13879;SDS011;7010;48.200;16.332;2022-10-16T09:31:12;33.00;;;29.63;;
13879;SDS011;7010;48.200;16.332;2022-10-16T09:33:44;36.05;;;32.15;;
13879;SDS011;7010;48.200;16.332;2022-10-16T09:36:15;32.95;;;29.65;;
13879;SDS011;7010;48.200;16.332;2022-10-16T09:38:44;39.20;;;30.77;;
13879;SDS011;7010;48.200;16.332;2022-10-16T09:41:14;35.95;;;32.58;;
13879;SDS011;7010;48.200;16.332;2022-10-16T09:43:49;32.45;;;29.55;;
13879;SDS011;7010;48.200;16.332;2022-10-16T09:46:22;32.38;;;28.92;;
13879;SDS011;7010;48.200;16.332;2022-10-16T09:48:55;31.52;;;28.48;;
13879;SDS011;7010;48.200;16.332;2022-10-16T09:51:25;32.22;;;28.95;;
13879;SDS011;7010;48.200;16.332;2022-10-16T09:53:56;34.15;;;30.58;;
13879;SDS011;7010;48.200;16.332;2022-10-16T09:56:27;33.47;;;30.17;;
13879;SDS011;7010;48.200;16.332;2022-10-16T09:58:59;31.63;;;28.55;;
13879;SDS011;7010;48.200;16.332;2022-10-16T10:01:29;35.38;;;28.63;;
13879;SDS011;7010;48.200;16.332;2022-10-16T10:04:03;34.88;;;30.23;;
13879;SDS011;7010;48.200;16.332;2022-10-16T10:06:33;31.30;;;28.30;;
13879;SDS011;7010;48.200;16.332;2022-10-16T10:09:14;31.42;;;28.35;;
13879;SDS011;7010;48.200;16.332;2022-10-16T10:11:49;31.02;;;28.05;;
13879;SDS011;7010;48.200;16.332;2022-10-16T10:14:24;30.75;;;27.70;;
13879;SDS011;7010;48.200;16.332;2022-10-16T10:17:12;32.78;;;29.35;;
13879;SDS011;7010;48.200;16.332;2022-10-16T10:19:44;31.27;;;28.30;;
13879;SDS011;7010;48.200;16.332;2022-10-16T10:22:19;31.83;;;28.58;;
13879;SDS011;7010;48.200;16.332;2022-10-16T10:24:55;29.85;;;26.85;;
13879;SDS011;7010;48.200;16.332;2022-10-16T10:27:29;30.40;;;27.25;;
13879;SDS011;7010;48.200;16.332;2022-10-16T10:30:06;29.55;;;26.70;;
13879;SDS011;7010;48.200;16.332;2022-10-16T10:32:44;29.55;;;26.02;;
13879;SDS011;7010;48.200;16.332;2022-10-16T10:35:21;43.13;;;26.98;;
13879;SDS011;7010;48.200;16.332;2022-10-16T10:38:00;28.67;;;25.85;;
13879;SDS011;7010;48.200;16.332;2022-10-16T10:40:40;35.53;;;28.20;;
13879;SDS011;7010;48.200;16.332;2022-10-16T10:43:19;29.70;;;26.52;;
13879;SDS011;7010;48.200;16.332;2022-10-16T10:46:09;29.67;;;26.80;;
13879;SDS011;7010;48.200;16.332;2022-10-16T10:48:58;29.45;;;24.42;;
13879;SDS011;7010;48.200;16.332;2022-10-16T10:51:38;29.70;;;26.67;;
13879;SDS011;7010;48.200;16.332;2022-10-16T10:54:14;29.67;;;26.73;;
13879;SDS011;7010;48.200;16.332;2022-10-16T10:56:50;28.90;;;25.85;;
13879;SDS011;7010;48.200;16.332;2022-10-16T10:59:31;28.70;;;25.90;;
13879;SDS011;7010;48.200;16.332;2022-10-16T11:02:15;29.80;;;26.77;;
13879;SDS011;7010;48.200;16.332;2022-10-16T11:04:55;27.70;;;24.80;;
13879;SDS011;7010;48.200;16.332;2022-10-16T11:07:34;25.55;;;23.17;;
13879;SDS011;7010;48.200;16.332;2022-10-16T11:10:09;28.40;;;25.63;;
13879;SDS011;7010;48.200;16.332;2022-10-16T11:12:42;30.70;;;27.15;;
13879;SDS011;7010;48.200;16.332;2022-10-16T11:15:14;28.98;;;25.58;;
13879;SDS011;7010;48.200;16.332;2022-10-16T11:17:48;28.23;;;25.35;;
13879;SDS011;7010;48.200;16.332;2022-10-16T11:20:22;27.98;;;24.75;;
13879;SDS011;7010;48.200;16.332;2022-10-16T11:22:54;27.48;;;24.90;;
13879;SDS011;7010;48.200;16.332;2022-10-16T11:25:26;31.35;;;27.83;;
13879;SDS011;7010;48.200;16.332;2022-10-16T11:27:56;29.75;;;26.63;;
13879;SDS011;7010;48.200;16.332;2022-10-16T11:30:30;28.23;;;25.73;;
13879;SDS011;7010;48.200;16.332;2022-10-16T11:33:04;30.15;;;27.13;;
13879;SDS011;7010;48.200;16.332;2022-10-16T11:35:44;27.88;;;25.17;;
13879;SDS011;7010;48.200;16.332;2022-10-16T11:38:19;26.42;;;23.58;;
13879;SDS011;7010;48.200;16.332;2022-10-16T11:40:53;25.92;;;23.02;;
13879;SDS011;7010;48.200;16.332;2022-10-16T11:43:26;24.30;;;21.98;;
13879;SDS011;7010;48.200;16.332;2022-10-16T11:46:02;24.98;;;22.52;;
13879;SDS011;7010;48.200;16.332;2022-10-16T11:48:39;23.70;;;21.55;;
13879;SDS011;7010;48.200;16.332;2022-10-16T11:51:14;27.08;;;24.40;;
13879;SDS011;7010;48.200;16.332;2022-10-16T11:53:51;26.88;;;23.83;;
13879;SDS011;7010;48.200;16.332;2022-10-16T11:56:25;28.60;;;25.70;;
13879;SDS011;7010;48.200;16.332;2022-10-16T11:58:55;27.33;;;24.48;;
13879;SDS011;7010;48.200;16.332;2022-10-16T12:01:28;28.10;;;25.48;;
13879;SDS011;7010;48.200;16.332;2022-10-16T12:04:14;28.35;;;25.67;;
13879;SDS011;7010;48.200;16.332;2022-10-16T12:06:49;28.52;;;25.92;;
13879;SDS011;7010;48.200;16.332;2022-10-16T12:09:23;29.95;;;26.95;;
13879;SDS011;7010;48.200;16.332;2022-10-16T12:11:54;32.60;;;26.80;;
13879;SDS011;7010;48.200;16.332;2022-10-16T12:14:35;29.65;;;26.00;;
13879;SDS011;7010;48.200;16.332;2022-10-16T12:17:26;27.23;;;24.50;;
13879;SDS011;7010;48.200;16.332;2022-10-16T12:20:15;27.15;;;24.48;;
13879;SDS011;7010;48.200;16.332;2022-10-16T12:22:49;27.38;;;24.67;;
13879;SDS011;7010;48.200;16.332;2022-10-16T12:25:21;25.67;;;23.38;;
13879;SDS011;7010;48.200;16.332;2022-10-16T12:27:56;26.90;;;24.10;;
13879;SDS011;7010;48.200;16.332;2022-10-16T12:30:27;27.20;;;24.67;;
13879;SDS011;7010;48.200;16.332;2022-10-16T12:33:01;28.52;;;25.50;;
13879;SDS011;7010;48.200;16.332;2022-10-16T12:35:33;41.95;;;23.25;;
13879;SDS011;7010;48.200;16.332;2022-10-16T12:38:17;25.90;;;23.33;;
13879;SDS011;7010;48.200;16.332;2022-10-16T12:40:53;27.25;;;24.45;;
13879;SDS011;7010;48.200;16.332;2022-10-16T12:43:27;26.83;;;24.23;;
13879;SDS011;7010;48.200;16.332;2022-10-16T12:46:04;24.80;;;22.40;;
13879;SDS011;7010;48.200;16.332;2022-10-16T12:48:47;23.65;;;21.35;;
13879;SDS011;7010;48.200;16.332;2022-10-16T12:51:35;23.83;;;21.70;;
13879;SDS011;7010;48.200;16.332;2022-10-16T12:54:05;24.08;;;21.98;;
13879;SDS011;7010;48.200;16.332;2022-10-16T12:56:42;25.60;;;23.30;;
13879;SDS011;7010;48.200;16.332;2022-10-16T12:59:21;28.20;;;25.27;;
13879;SDS011;7010;48.200;16.332;2022-10-16T13:02:08;24.65;;;22.15;;
13879;SDS011;7010;48.200;16.332;2022-10-16T13:05:13;25.25;;;22.65;;
13879;SDS011;7010;48.200;16.332;2022-10-16T13:07:59;25.30;;;22.60;;
13879;SDS011;7010;48.200;16.332;2022-10-16T13:10:35;24.65;;;22.17;;
13879;SDS011;7010;48.200;16.332;2022-10-16T13:13:12;24.50;;;22.17;;
13879;SDS011;7010;48.200;16.332;2022-10-16T13:16:09;25.75;;;23.30;;
13879;SDS011;7010;48.200;16.332;2022-10-16T13:18:47;24.45;;;21.98;;
13879;SDS011;7010;48.200;16.332;2022-10-16T13:21:29;25.35;;;22.85;;
13879;SDS011;7010;48.200;16.332;2022-10-16T13:24:09;23.25;;;21.17;;
13879;SDS011;7010;48.200;16.332;2022-10-16T13:26:46;23.75;;;21.42;;
13879;SDS011;7010;48.200;16.332;2022-10-16T13:29:21;26.33;;;23.98;;
13879;SDS011;7010;48.200;16.332;2022-10-16T13:31:50;28.02;;;23.77;;
13879;SDS011;7010;48.200;16.332;2022-10-16T13:34:19;25.92;;;23.48;;
13879;SDS011;7010;48.200;16.332;2022-10-16T13:36:50;28.38;;;24.73;;
13879;SDS011;7010;48.200;16.332;2022-10-16T13:39:24;27.55;;;24.85;;
13879;SDS011;7010;48.200;16.332;2022-10-16T13:41:58;29.42;;;24.00;;
13879;SDS011;7010;48.200;16.332;2022-10-16T13:44:36;23.27;;;21.05;;
13879;SDS011;7010;48.200;16.332;2022-10-16T13:47:14;24.23;;;22.08;;
13879;SDS011;7010;48.200;16.332;2022-10-16T13:49:44;27.48;;;24.08;;
13879;SDS011;7010;48.200;16.332;2022-10-16T13:52:16;25.95;;;23.38;;
13879;SDS011;7010;48.200;16.332;2022-10-16T13:54:47;25.98;;;23.67;;
13879;SDS011;7010;48.200;16.332;2022-10-16T13:57:16;26.20;;;23.50;;
13879;SDS011;7010;48.200;16.332;2022-10-16T13:59:52;24.70;;;22.30;;
13879;SDS011;7010;48.200;16.332;2022-10-16T14:02:24;28.10;;;24.63;;
13879;SDS011;7010;48.200;16.332;2022-10-16T14:04:55;27.50;;;24.55;;
13879;SDS011;7010;48.200;16.332;2022-10-16T14:07:25;29.60;;;26.48;;
13879;SDS011;7010;48.200;16.332;2022-10-16T14:09:56;26.73;;;24.13;;
13879;SDS011;7010;48.200;16.332;2022-10-16T14:12:28;26.00;;;23.48;;
13879;SDS011;7010;48.200;16.332;2022-10-16T14:14:57;29.52;;;26.63;;
13879;SDS011;7010;48.200;16.332;2022-10-16T14:17:27;26.23;;;23.58;;
13879;SDS011;7010;48.200;16.332;2022-10-16T14:19:58;25.33;;;22.65;;
13879;SDS011;7010;48.200;16.332;2022-10-16T14:22:32;23.98;;;21.75;;
13879;SDS011;7010;48.200;16.332;2022-10-16T14:25:15;27.38;;;20.90;;
13879;SDS011;7010;48.200;16.332;2022-10-16T14:27:56;22.48;;;20.38;;
13879;SDS011;7010;48.200;16.332;2022-10-16T14:30:28;22.08;;;20.05;;
13879;SDS011;7010;48.200;16.332;2022-10-16T14:32:57;25.33;;;21.42;;
13879;SDS011;7010;48.200;16.332;2022-10-16T14:35:29;23.83;;;21.08;;
13879;SDS011;7010;48.200;16.332;2022-10-16T14:37:59;24.15;;;20.92;;
13879;SDS011;7010;48.200;16.332;2022-10-16T14:40:30;23.42;;;21.17;;
13879;SDS011;7010;48.200;16.332;2022-10-16T14:43:00;22.58;;;20.08;;
13879;SDS011;7010;48.200;16.332;2022-10-16T14:45:30;22.52;;;20.15;;
13879;SDS011;7010;48.200;16.332;2022-10-16T14:48:02;21.95;;;19.95;;
13879;SDS011;7010;48.200;16.332;2022-10-16T14:50:32;21.85;;;19.55;;
13879;SDS011;7010;48.200;16.332;2022-10-16T14:53:04;20.58;;;18.60;;
13879;SDS011;7010;48.200;16.332;2022-10-16T14:55:40;21.42;;;19.13;;